createdAt,value
2022-08-21T04:02:03.284Z,10.30
2022-08-21T04:04:33.210Z,10.80
2022-08-21T04:07:03.253Z,7.50
2022-08-21T04:09:32.637Z,9.20
2022-08-21T04:12:02.213Z,13.40
2022-08-21T04:14:31.679Z,8.60
2022-08-21T04:17:00.211Z,12.60
2022-08-21T04:19:29.500Z,11.70
2022-08-21T04:22:00.750Z,13.20
2022-08-21T04:24:30.106Z,11.50
2022-08-21T04:26:59.550Z,12.30
2022-08-21T04:29:29.290Z,12.70
2022-08-21T04:32:00.727Z,16.50
2022-08-21T04:34:29.811Z,9.30
2022-08-21T04:36:59.646Z,10.40
2022-08-21T04:39:29.577Z,9.90
2022-08-21T04:41:59.253Z,10.50
2022-08-21T04:44:28.501Z,8.90
2022-08-21T04:46:57.771Z,13.70
2022-08-21T04:49:27.163Z,10.30
2022-08-21T04:51:56.566Z,8.50
2022-08-21T04:54:26.152Z,9.90
2022-08-21T04:57:01.444Z,10.20
2022-08-21T04:59:37.450Z,10.30
2022-08-21T05:02:10.072Z,10.50
2022-08-21T05:04:46.274Z,11.50
2022-08-21T05:07:41.592Z,13.90
2022-08-21T05:10:13.877Z,11.60
2022-08-21T05:12:45.240Z,13.10
2022-08-21T05:15:15.137Z,14.80
2022-08-21T05:17:43.616Z,13.70
2022-08-21T05:20:22.339Z,10.30
2022-08-21T05:22:51.594Z,10.50
2022-08-21T05:25:22.270Z,9.10
2022-08-21T05:27:52.802Z,12.00
2022-08-21T05:30:22.662Z,11.50
2022-08-21T05:32:59.371Z,10.90
2022-08-21T05:35:30.808Z,10.40
2022-08-21T05:38:01.641Z,12.40
2022-08-21T05:40:31.388Z,13.00
2022-08-21T05:43:01.985Z,11.60
2022-08-21T05:45:43.554Z,9.20
2022-08-21T05:48:22.243Z,11.40
2022-08-21T05:50:53.340Z,10.10
2022-08-21T05:53:24.814Z,10.20
2022-08-21T05:55:54.276Z,9.60
2022-08-21T05:58:24.356Z,11.80
2022-08-21T06:00:54.304Z,8.80
2022-08-21T06:03:27.775Z,9.50
2022-08-21T06:05:57.354Z,11.00
2022-08-21T06:08:27.697Z,9.40
2022-08-21T06:10:59.153Z,11.50
2022-08-21T06:13:29.464Z,11.90
2022-08-21T06:16:15.969Z,8.80
2022-08-21T06:18:47.300Z,11.60
2022-08-21T06:21:16.524Z,8.60
2022-08-21T06:23:46.039Z,8.50
2022-08-21T06:26:16.399Z,9.00
2022-08-21T06:28:48.854Z,9.40
2022-08-21T06:31:23.902Z,12.50
2022-08-21T06:33:54.478Z,9.00
2022-08-21T06:36:24.563Z,9.70
2022-08-21T06:38:53.906Z,9.50
2022-08-21T06:41:27.844Z,12.90
2022-08-21T06:43:58.346Z,18.00
2022-08-21T06:46:29.897Z,11.70
2022-08-21T06:48:59.920Z,10.00
2022-08-21T06:51:30.188Z,10.10
2022-08-21T06:53:59.631Z,9.60
2022-08-21T06:56:29.013Z,10.80
2022-08-21T06:58:59.157Z,14.60
2022-08-21T07:01:28.478Z,10.30
2022-08-21T07:03:57.787Z,10.40
2022-08-21T07:06:27.401Z,10.50
2022-08-21T07:08:59.278Z,11.00
2022-08-21T07:11:29.517Z,12.70
2022-08-21T07:13:59.633Z,11.50
2022-08-21T07:16:28.882Z,11.10
2022-08-21T07:18:58.082Z,11.30
2022-08-21T07:21:27.691Z,11.30
2022-08-21T07:23:56.591Z,9.90
2022-08-21T07:26:25.763Z,10.00
2022-08-21T07:28:55.611Z,9.90
2022-08-21T07:31:28.170Z,11.50
2022-08-21T07:33:57.466Z,10.60
2022-08-21T07:36:26.449Z,11.60
2022-08-21T07:38:55.815Z,11.30
2022-08-21T07:41:27.448Z,11.20
2022-08-21T07:44:00.796Z,11.20
2022-08-21T07:46:29.786Z,12.10
2022-08-21T07:48:59.340Z,10.20
2022-08-21T07:51:30.045Z,11.50
2022-08-21T07:54:03.278Z,10.40
2022-08-21T07:56:33.280Z,11.10
2022-08-21T07:59:04.062Z,11.50
2022-08-21T08:01:32.718Z,12.60
2022-08-21T08:04:01.816Z,11.40
2022-08-21T08:06:32.032Z,13.20
2022-08-21T08:09:03.958Z,14.60
2022-08-21T08:11:34.080Z,10.70
2022-08-21T08:14:05.557Z,11.80
2022-08-21T08:16:35.311Z,10.40
2022-08-21T08:19:05.475Z,10.50
2022-08-21T08:21:37.922Z,11.40
2022-08-21T08:24:18.758Z,10.60
2022-08-21T08:26:53.576Z,10.30
2022-08-21T08:29:24.070Z,10.30
2022-08-21T08:31:53.346Z,11.10
2022-08-21T08:34:25.856Z,10.70
2022-08-21T08:36:55.716Z,13.70
2022-08-21T08:39:29.400Z,10.20
2022-08-21T08:42:32.970Z,11.50
2022-08-21T08:45:12.549Z,11.70
2022-08-21T08:47:52.377Z,11.30
2022-08-21T08:50:28.077Z,11.10
2022-08-21T08:53:11.825Z,10.10
2022-08-21T08:55:45.809Z,10.70
2022-08-21T08:58:26.650Z,11.20
2022-08-21T09:00:57.084Z,10.70
2022-08-21T09:03:28.691Z,10.40
2022-08-21T09:06:43.158Z,11.40
2022-08-21T09:09:36.292Z,10.70
2022-08-21T09:12:17.863Z,13.00
2022-08-21T09:15:16.454Z,10.50
2022-08-21T09:17:52.627Z,11.80
2022-08-21T09:20:35.067Z,10.30
2022-08-21T09:23:37.505Z,10.30
2022-08-21T09:26:18.694Z,10.90
2022-08-21T09:28:55.269Z,10.50
2022-08-21T09:31:41.034Z,10.70
2022-08-21T09:34:15.616Z,9.40
2022-08-21T09:36:52.326Z,10.00
2022-08-21T09:39:48.199Z,9.30
2022-08-21T09:42:28.940Z,9.40
2022-08-21T09:45:18.201Z,9.90
2022-08-21T09:47:48.164Z,9.20
2022-08-21T09:50:23.606Z,10.70
2022-08-21T09:53:00.287Z,11.50
2022-08-21T09:56:14.282Z,9.00
2022-08-21T09:58:52.344Z,9.50
2022-08-21T10:01:27.624Z,8.80
2022-08-21T10:04:10.813Z,8.30
2022-08-21T10:06:41.096Z,8.50
2022-08-21T10:09:21.329Z,7.50
2022-08-21T10:12:30.433Z,7.80
2022-08-21T10:15:24.694Z,8.20
2022-08-21T10:18:50.038Z,8.70
2022-08-21T10:21:54.374Z,8.70
2022-08-21T10:24:33.396Z,8.80
2022-08-21T10:27:07.393Z,10.40
2022-08-21T10:29:55.569Z,9.50
2022-08-21T10:33:16.374Z,8.80
2022-08-21T10:35:58.037Z,10.10
2022-08-21T10:39:17.743Z,10.40
2022-08-21T10:42:28.706Z,8.80
2022-08-21T10:45:13.643Z,9.80
2022-08-21T10:47:58.133Z,9.00
2022-08-21T10:50:43.691Z,8.60
2022-08-21T10:53:30.067Z,9.60
2022-08-21T10:56:03.675Z,10.00
2022-08-21T10:58:47.362Z,8.90
2022-08-21T11:01:26.924Z,9.40
2022-08-21T11:04:14.299Z,9.00
2022-08-21T11:06:49.500Z,9.50
2022-08-21T11:09:26.428Z,10.10
2022-08-21T11:12:22.623Z,9.40
2022-08-21T11:15:08.353Z,9.30
2022-08-21T11:18:06.214Z,8.20
2022-08-21T11:20:44.997Z,9.60
2022-08-21T11:24:13.202Z,8.50
2022-08-21T11:27:03.505Z,9.00
2022-08-21T11:29:40.310Z,8.90
2022-08-21T11:32:33.914Z,8.90
2022-08-21T11:35:07.489Z,9.50
2022-08-21T11:37:58.438Z,8.40
2022-08-21T11:40:43.338Z,8.30
2022-08-21T11:43:21.284Z,9.00
2022-08-21T11:45:57.284Z,8.80
2022-08-21T11:48:53.975Z,7.80
2022-08-21T11:52:02.998Z,7.70
2022-08-21T11:54:39.030Z,7.70
2022-08-21T11:57:27.133Z,8.10
2022-08-21T12:00:30.085Z,8.20
2022-08-21T12:03:11.422Z,8.50
2022-08-21T12:05:44.131Z,9.40
2022-08-21T12:08:16.352Z,8.00
2022-08-21T12:11:20.407Z,8.50
2022-08-21T12:13:58.412Z,8.30
2022-08-21T12:16:40.746Z,7.90
2022-08-21T12:19:12.740Z,8.10
2022-08-21T12:21:56.279Z,10.90
2022-08-21T12:25:05.808Z,9.10
2022-08-21T12:27:49.499Z,8.00
2022-08-21T12:30:27.372Z,8.60
2022-08-21T12:33:00.558Z,8.20
2022-08-21T12:35:38.948Z,7.70
2022-08-21T12:38:20.298Z,7.50
2022-08-21T12:40:55.331Z,7.80
2022-08-21T12:43:37.637Z,8.20
2022-08-21T12:46:07.267Z,7.80
2022-08-21T12:49:15.045Z,8.00
2022-08-21T12:51:56.372Z,7.70
2022-08-21T12:54:29.811Z,7.10
2022-08-21T12:57:05.836Z,9.00
2022-08-21T12:59:39.498Z,8.10
2022-08-21T13:02:18.233Z,7.70
2022-08-21T13:04:49.305Z,7.50
2022-08-21T13:07:30.489Z,6.70
2022-08-21T13:10:18.004Z,7.30
2022-08-21T13:12:48.617Z,7.80
2022-08-21T13:15:32.012Z,6.80
2022-08-21T13:18:04.567Z,7.50
2022-08-21T13:20:39.777Z,7.30
2022-08-21T13:23:26.881Z,7.50
2022-08-21T13:25:57.266Z,6.80
2022-08-21T13:28:35.136Z,7.50
2022-08-21T13:31:11.432Z,7.10
2022-08-21T13:33:42.137Z,7.20
2022-08-21T13:36:18.154Z,6.40
2022-08-21T13:38:47.773Z,7.30
2022-08-21T13:41:30.590Z,7.20
2022-08-21T13:44:03.466Z,6.90
2022-08-21T13:46:36.301Z,7.70
2022-08-21T13:49:08.116Z,7.30
2022-08-21T13:51:38.778Z,7.40
2022-08-21T13:54:38.670Z,7.40
2022-08-21T13:57:32.436Z,7.80
2022-08-21T14:00:26.795Z,6.90
2022-08-21T14:03:04.531Z,6.70
2022-08-21T14:05:37.067Z,7.40
2022-08-21T14:08:30.868Z,6.70
2022-08-21T14:11:01.383Z,8.70
2022-08-21T14:13:45.237Z,8.60
2022-08-21T14:16:24.678Z,9.20
2022-08-21T14:19:22.925Z,8.90
2022-08-21T14:21:52.140Z,12.70
2022-08-21T14:24:24.951Z,10.70
2022-08-21T14:27:07.105Z,15.80
2022-08-21T14:29:41.345Z,9.30
2022-08-21T14:32:24.602Z,10.50
2022-08-21T14:34:55.531Z,13.60
2022-08-21T14:37:28.168Z,12.80
2022-08-21T14:39:57.434Z,8.80
2022-08-21T14:42:27.143Z,9.20
2022-08-21T14:45:01.977Z,9.70
2022-08-21T14:47:31.326Z,9.90
2022-08-21T14:50:00.715Z,11.70
2022-08-21T14:52:30.146Z,8.00
2022-08-21T14:54:59.468Z,8.70
2022-08-21T14:57:31.629Z,8.60
2022-08-21T15:00:02.222Z,9.70
2022-08-21T15:02:41.120Z,8.60
2022-08-21T15:05:11.502Z,9.10
2022-08-21T15:07:41.293Z,7.50
2022-08-21T15:10:11.228Z,10.70
2022-08-21T15:12:41.760Z,7.30
2022-08-21T15:15:11.371Z,8.30
2022-08-21T15:17:43.901Z,6.80
2022-08-21T15:20:16.513Z,6.60
2022-08-21T15:22:47.657Z,7.20
2022-08-21T15:25:17.521Z,4.60
2022-08-21T15:27:46.646Z,5.80
2022-08-21T15:30:16.969Z,3.40
2022-08-21T15:32:46.274Z,5.20
2022-08-21T15:35:15.440Z,4.20
2022-08-21T15:37:44.798Z,3.50
2022-08-21T15:40:15.615Z,5.00
2022-08-21T15:42:45.853Z,4.60
2022-08-21T15:45:16.459Z,4.40
2022-08-21T15:47:47.403Z,8.90
2022-08-21T15:50:16.825Z,7.10
2022-08-21T15:52:46.339Z,5.70
2022-08-21T15:55:16.984Z,6.40
2022-08-21T15:57:57.193Z,5.70
2022-08-21T16:00:34.530Z,4.70
2022-08-21T16:03:07.631Z,6.10
2022-08-21T16:05:38.520Z,3.50
2022-08-21T16:08:08.370Z,3.10
2022-08-21T16:10:38.936Z,3.30
2022-08-21T16:13:15.905Z,1.70
2022-08-21T16:16:41.078Z,2.90
2022-08-21T16:19:11.938Z,2.10
2022-08-21T16:21:41.430Z,1.70
2022-08-21T16:24:11.236Z,2.60
2022-08-21T16:26:40.524Z,3.20
2022-08-21T16:29:10.131Z,3.50
2022-08-21T16:31:39.214Z,2.70
2022-08-21T16:34:08.536Z,2.90
2022-08-21T16:36:37.621Z,2.60
2022-08-21T16:39:06.810Z,3.00
2022-08-21T16:41:36.773Z,3.00
2022-08-21T16:44:06.644Z,3.20
2022-08-21T16:46:39.110Z,3.90
2022-08-21T16:49:08.442Z,3.60
2022-08-21T16:51:38.324Z,3.50
2022-08-21T16:54:07.121Z,3.20
2022-08-21T16:56:39.750Z,4.40
2022-08-21T16:59:12.085Z,3.40
2022-08-21T17:01:42.271Z,4.50
2022-08-21T17:04:10.868Z,3.40
2022-08-21T17:06:40.001Z,3.40
2022-08-21T17:09:09.169Z,5.60
2022-08-21T17:11:41.181Z,3.20
2022-08-21T17:14:17.926Z,3.90
2022-08-21T17:16:49.178Z,3.50
2022-08-21T17:19:21.116Z,6.60
2022-08-21T17:21:49.598Z,5.00
2022-08-21T17:24:18.998Z,4.50
2022-08-21T17:26:48.931Z,3.10
2022-08-21T17:29:21.531Z,3.30
2022-08-21T17:34:19.937Z,6.80
2022-08-21T17:36:48.780Z,5.00
2022-08-21T17:39:22.166Z,3.40
2022-08-21T17:41:56.332Z,3.10
2022-08-21T17:44:26.829Z,3.40
2022-08-21T17:46:55.508Z,2.30
2022-08-21T17:49:25.562Z,2.20
2022-08-21T17:51:55.762Z,2.30
2022-08-21T17:54:28.502Z,2.50
2022-08-21T17:57:00.284Z,2.00
2022-08-21T17:59:30.340Z,2.20
2022-08-21T18:02:02.405Z,1.80
2022-08-21T18:04:32.175Z,2.20
2022-08-21T18:07:01.168Z,2.00
2022-08-21T18:09:30.163Z,1.60
2022-08-21T18:12:00.898Z,3.90
2022-08-21T18:14:33.904Z,1.50
2022-08-21T18:17:07.319Z,1.90
2022-08-21T18:19:36.993Z,2.20
2022-08-21T18:22:17.541Z,1.90
2022-08-21T18:24:47.994Z,1.60
2022-08-21T18:27:18.625Z,1.70
2022-08-21T18:29:49.392Z,3.10
2022-08-21T18:32:31.365Z,2.10
2022-08-21T18:37:31.950Z,2.00
2022-08-21T18:40:01.805Z,1.50
2022-08-21T18:42:34.766Z,2.20
2022-08-21T18:45:11.173Z,2.80
2022-08-21T18:48:07.860Z,2.20
2022-08-21T18:50:40.083Z,1.00
2022-08-21T18:53:27.450Z,1.50
2022-08-21T18:55:57.879Z,1.60
2022-08-21T18:58:34.758Z,1.30
2022-08-21T19:01:04.798Z,3.20
2022-08-21T19:03:36.712Z,1.10
2022-08-21T19:06:06.369Z,1.10
2022-08-21T19:08:40.818Z,1.30
2022-08-21T19:11:09.906Z,2.10
2022-08-21T19:13:39.059Z,2.30
2022-08-21T19:16:09.748Z,1.90
2022-08-21T19:18:41.491Z,1.70
2022-08-21T19:21:10.763Z,2.20
2022-08-21T19:23:40.366Z,2.00
2022-08-21T19:26:12.925Z,2.50
2022-08-21T19:28:46.173Z,1.70
2022-08-21T19:31:19.787Z,2.70
2022-08-21T19:36:48.263Z,2.60
2022-08-21T19:39:18.322Z,3.50
2022-08-21T19:41:51.618Z,1.70
2022-08-21T19:46:52.966Z,5.50
2022-08-21T19:49:34.015Z,2.10
2022-08-21T19:52:11.871Z,3.30
2022-08-21T19:54:42.974Z,1.40
2022-08-21T19:57:12.679Z,2.10
2022-08-21T20:00:07.734Z,3.20
2022-08-21T20:02:49.845Z,3.10
2022-08-21T20:05:45.183Z,1.60
2022-08-21T20:08:20.581Z,2.30
2022-08-21T20:10:51.035Z,1.30
2022-08-21T20:13:23.218Z,2.80
2022-08-21T20:15:53.234Z,3.00
2022-08-21T20:18:26.617Z,1.80
2022-08-21T20:20:56.381Z,1.50
2022-08-21T20:23:29.939Z,3.10
2022-08-21T20:26:00.989Z,4.70
2022-08-21T20:28:31.336Z,1.80
2022-08-21T20:31:02.059Z,4.60
2022-08-21T20:33:37.723Z,2.90
2022-08-21T20:36:08.672Z,2.70
2022-08-21T20:38:37.939Z,3.40
2022-08-21T20:41:18.000Z,2.60
2022-08-21T20:43:59.784Z,1.70
2022-08-21T20:46:32.163Z,1.80
2022-08-21T20:49:02.486Z,3.20
2022-08-21T20:51:44.790Z,2.80
2022-08-21T20:54:26.692Z,1.40
2022-08-21T20:57:26.391Z,2.00
2022-08-21T21:00:14.621Z,1.60
2022-08-21T21:03:07.539Z,0.80
2022-08-21T21:05:50.245Z,1.00
2022-08-21T21:08:26.632Z,1.20
2022-08-21T21:11:00.016Z,2.20
2022-08-21T21:17:33.406Z,2.80
2022-08-21T21:20:20.132Z,1.30
2022-08-21T21:22:55.700Z,2.40
2022-08-21T21:25:40.853Z,1.30
2022-08-21T21:28:43.018Z,2.00
2022-08-21T21:34:01.481Z,1.80
2022-08-21T21:36:36.723Z,1.80
2022-08-21T21:39:36.070Z,1.40
2022-08-21T21:42:42.129Z,3.00
2022-08-21T21:45:25.901Z,2.10
2022-08-21T21:48:21.238Z,1.00
2022-08-21T21:51:01.135Z,0.60
2022-08-21T21:53:42.899Z,2.80
2022-08-21T21:57:15.047Z,1.10
2022-08-21T22:00:56.970Z,1.20
2022-08-21T22:08:07.978Z,2.30
2022-08-21T22:11:24.280Z,0.70
2022-08-21T22:14:01.595Z,2.20
2022-08-21T22:16:32.952Z,1.60
2022-08-21T22:19:24.402Z,1.20
2022-08-21T22:26:30.257Z,0.70
2022-08-21T22:31:35.092Z,3.00
2022-08-21T22:34:37.264Z,2.60
2022-08-21T22:37:11.851Z,0.70
2022-08-21T22:42:35.065Z,0.70
2022-08-21T22:45:12.391Z,1.80
2022-08-21T22:47:46.082Z,1.20
2022-08-21T22:50:29.952Z,1.30
2022-08-21T22:57:27.591Z,1.00
2022-08-21T23:00:14.299Z,0.50
